Time;durP1;ratioP1;P1;durP2;ratioP2;P2;SDS_P1;SDS_P2;PMS_P1;PMS_P2;Temp;Humidity;BMP_temperature;BMP_pressure;BME280_temperature;BME280_humidity;BME280_pressure;Samples;Min_cycle;Max_cycle;Signal;HPM_P1;HPM_P2
2021/08/03 00:01:04;;;;;;;5.57;3.80;;;15.00;99.90;;;16.05;100.00;98004.25;5040526;28;21131;-88
2021/08/03 00:03:37;;;;;;;5.50;3.70;;;15.10;99.90;;;16.02;100.00;97994.13;5045021;28;20536;-88
2021/08/03 00:06:31;;;;;;;3.20;2.83;;;15.10;99.90;;;15.97;100.00;97996.63;5035480;28;21031;-88
2021/08/03 00:09:00;;;;;;;4.73;3.07;;;15.00;99.90;;;15.93;100.00;97994.66;5034809;28;20453;-88
2021/08/03 00:11:30;;;;;;;9.60;2.97;;;14.90;99.90;;;15.90;100.00;97995.09;5033208;28;20462;-87
2021/08/03 00:14:05;;;;;;;10.90;3.30;;;14.80;99.90;;;15.93;100.00;97990.19;5035024;28;20508;-88
2021/08/03 00:16:37;;;;;;;4.60;2.90;;;14.90;99.90;;;15.91;100.00;97986.16;5028253;28;20981;-88
2021/08/03 00:19:06;;;;;;;9.10;3.17;;;14.80;99.90;;;15.90;100.00;97989.81;5033044;28;20465;-87
2021/08/03 00:21:36;;;;;;;5.37;3.60;;;14.80;99.90;;;15.91;100.00;97986.16;5032194;28;20512;-88
2021/08/03 00:24:06;;;;;;;3.93;3.13;;;14.80;99.90;;;15.93;100.00;97992.03;5035198;28;20461;-88
2021/08/03 00:26:35;;;;;;;4.60;3.23;;;14.90;99.90;;;15.94;100.00;97985.72;5034589;28;20454;-88
2021/08/03 00:29:05;;;;;;;5.50;3.50;;;15.00;99.90;;;15.84;100.00;97985.44;5031277;28;20449;-88
2021/08/03 00:31:34;;;;;;;6.40;3.00;;;14.80;99.90;;;15.79;100.00;97990.59;5034417;28;20507;-87
2021/08/03 00:34:04;;;;;;;4.60;3.23;;;14.80;99.90;;;15.78;100.00;97984.50;5033988;28;20501;-88
2021/08/03 00:36:33;;;;;;;6.43;3.90;;;14.80;99.90;;;15.81;100.00;97976.16;5035011;28;20451;-88
2021/08/03 00:39:02;;;;;;;6.17;3.43;;;14.80;99.90;;;15.85;100.00;97981.78;5033192;28;20461;-88
2021/08/03 00:41:39;;;;;;;6.37;3.10;;;14.90;99.90;;;15.88;100.00;97976.06;5031457;28;20454;-88
2021/08/03 00:44:09;;;;;;;9.40;2.80;;;14.90;99.90;;;15.92;100.00;97982.50;5030366;28;20840;-88
2021/08/03 00:46:38;;;;;;;6.60;4.13;;;14.90;99.90;;;15.93;100.00;97978.84;5029529;28;20520;-88
2021/08/03 00:49:07;;;;;;;5.73;4.57;;;15.10;99.90;;;15.95;100.00;97982.06;5032196;28;20450;-88
2021/08/03 00:51:48;;;;;;;5.23;4.20;;;15.10;99.90;;;15.99;100.00;97983.22;5032530;28;20446;-88
2021/08/03 00:54:16;;;;;;;6.20;4.87;;;15.10;99.90;;;15.98;100.00;97977.13;5032180;28;20932;-88
2021/08/03 00:56:46;;;;;;;21.43;4.90;;;15.20;99.90;;;15.96;100.00;97973.13;5029717;28;20446;-88
2021/08/03 00:59:16;;;;;;;6.83;4.40;;;15.20;99.90;;;15.90;100.00;97976.63;5028178;28;20470;-88
2021/08/03 01:01:45;;;;;;;9.70;5.53;;;15.30;99.90;;;15.81;100.00;97976.16;5033004;28;20454;-87
2021/08/03 01:04:15;;;;;;;16.93;6.00;;;15.20;99.90;;;15.78;100.00;97976.59;5032055;28;20917;-88
2021/08/03 01:06:54;;;;;;;16.47;6.40;;;15.20;99.90;;;15.75;100.00;97981.50;5031348;28;20458;-87
2021/08/03 01:09:35;;;;;;;9.10;5.67;;;15.20;99.90;;;15.77;100.00;97984.72;5034181;28;20816;-87
2021/08/03 01:12:15;;;;;;;9.80;6.00;;;15.10;99.90;;;15.79;100.00;97980.03;5025345;28;20462;-87
2021/08/03 01:14:57;;;;;;;8.67;5.53;;;15.00;99.90;;;15.82;100.00;97977.75;5031134;28;20458;-88
2021/08/03 01:17:44;;;;;;;6.40;4.70;;;15.10;99.90;;;15.87;100.00;97974.44;5035788;28;20437;-88
2021/08/03 01:20:25;;;;;;;7.80;4.70;;;15.00;99.90;;;15.89;100.00;97967.94;5033412;28;20445;-88
2021/08/03 01:23:47;;;;;;;6.60;5.00;;;15.00;99.90;;;15.87;100.00;97954.16;5033235;28;20827;-87
2021/08/03 01:26:57;;;;;;;6.80;4.47;;;14.90;99.90;;;15.89;100.00;97957.38;5027025;28;20458;-88
2021/08/03 01:29:30;;;;;;;9.90;4.97;;;14.90;99.90;;;15.91;100.00;97965.06;5027968;28;20508;-88
2021/08/03 01:32:06;;;;;;;6.10;4.50;;;14.90;99.90;;;15.92;100.00;97961.41;5031584;28;20507;-88
2021/08/03 01:34:42;;;;;;;6.70;4.90;;;14.90;99.90;;;15.92;100.00;97964.84;5028406;28;20540;-88
2021/08/03 01:37:17;;;;;;;14.40;5.00;;;14.90;99.90;;;15.91;100.00;97957.16;5033784;28;20500;-87
2021/08/03 01:39:56;;;;;;;7.30;5.03;;;14.90;99.90;;;15.93;100.00;97952.47;5033813;28;20458;-88
2021/08/03 01:42:27;;;;;;;7.57;5.43;;;15.00;99.90;;;15.93;100.00;97957.75;5031719;28;20458;-87
2021/08/03 01:45:00;;;;;;;6.80;4.67;;;15.00;99.90;;;15.95;100.00;97958.31;5037154;28;20450;-88
2021/08/03 01:47:31;;;;;;;5.30;4.67;;;15.00;99.90;;;15.93;100.00;97953.25;5022942;28;20861;-87
2021/08/03 01:50:02;;;;;;;5.80;4.60;;;14.90;99.90;;;15.96;100.00;97957.31;5036325;28;20480;-88
2021/08/03 01:52:34;;;;;;;5.07;4.23;;;15.00;99.90;;;15.94;100.00;97948.78;5037068;28;20465;-88
2021/08/03 01:55:04;;;;;;;5.40;4.37;;;15.00;99.90;;;15.94;100.00;97946.16;5041268;28;20454;-88
2021/08/03 01:57:35;;;;;;;6.87;4.50;;;15.00;99.90;;;15.90;100.00;97953.69;5029617;28;20480;-88
2021/08/03 02:00:06;;;;;;;7.10;4.63;;;14.90;99.90;;;15.89;100.00;97949.47;5039263;28;20477;-88
2021/08/03 02:02:35;;;;;;;7.03;4.83;;;14.90;99.90;;;15.87;100.00;97953.34;5035254;28;20496;-88
2021/08/03 02:05:06;;;;;;;6.30;4.50;;;14.90;99.90;;;15.85;100.00;97947.50;5023569;28;20454;-88
2021/08/03 02:07:36;;;;;;;4.30;3.87;;;14.90;99.90;;;15.88;100.00;97949.69;5030568;28;20468;-87
2021/08/03 02:10:07;;;;;;;8.60;4.30;;;14.90;99.90;;;15.87;100.00;97945.44;5030994;28;20450;-87
2021/08/03 02:12:37;;;;;;;8.23;5.17;;;14.90;99.90;;;15.89;100.00;97940.75;5028651;28;20470;-88
2021/08/03 02:15:10;;;;;;;6.27;5.07;;;14.90;99.90;;;15.89;100.00;97936.28;5030192;28;21003;-88
2021/08/03 02:17:39;;;;;;;5.70;4.50;;;14.90;99.90;;;15.93;100.00;97941.91;5027325;28;20461;-87
2021/08/03 02:20:09;;;;;;;8.80;5.67;;;14.90;99.90;;;15.91;100.00;97941.31;5029532;28;20466;-88
2021/08/03 02:22:38;;;;;;;5.97;4.40;;;14.90;99.90;;;15.91;100.00;97949.25;5030170;28;20507;-87
2021/08/03 02:25:10;;;;;;;13.23;5.33;;;14.90;99.90;;;15.90;100.00;97948.44;5029987;28;20528;-88
2021/08/03 02:27:40;;;;;;;7.33;5.20;;;14.90;99.90;;;15.89;100.00;97941.56;5030487;28;20459;-87
2021/08/03 02:30:13;;;;;;;6.50;5.10;;;14.90;99.90;;;15.91;100.00;97938.69;5031289;28;20955;-88
2021/08/03 02:32:50;;;;;;;7.73;5.67;;;14.90;99.90;;;15.88;100.00;97933.88;5027668;28;20461;-87
2021/08/03 02:35:25;;;;;;;6.00;5.40;;;15.00;99.90;;;15.86;100.00;97928.03;5030219;28;20505;-88
2021/08/03 02:38:00;;;;;;;5.77;4.80;;;15.00;99.90;;;15.87;100.00;97926.97;5017112;28;20520;-87
2021/08/03 02:40:29;;;;;;;7.77;5.57;;;15.00;99.90;;;15.90;100.00;97926.53;5030667;28;20461;-88
2021/08/03 02:42:59;;;;;;;8.53;5.93;;;15.00;99.90;;;15.90;100.00;97915.97;5030177;28;20935;-88
2021/08/03 02:45:31;;;;;;;8.07;5.60;;;15.00;99.90;;;15.92;100.00;97919.22;5026720;28;20460;-88
2021/08/03 02:48:10;;;;;;;9.73;6.10;;;15.10;99.90;;;15.89;100.00;97919.66;5032479;28;20873;-88
2021/08/03 02:50:43;;;;;;;8.07;5.97;;;15.10;99.90;;;15.86;100.00;97915.63;5031947;28;20477;-87
2021/08/03 02:53:24;;;;;;;8.53;6.27;;;15.10;99.90;;;15.87;100.00;97913.78;5034571;28;20457;-88
2021/08/03 02:55:59;;;;;;;8.93;6.07;;;15.00;99.90;;;15.87;100.00;97913.78;5031232;28;20446;-88
2021/08/03 02:58:36;;;;;;;13.50;6.07;;;15.10;99.90;;;15.87;100.00;97905.88;5027392;28;20458;-88
2021/08/03 03:01:11;;;;;;;13.83;7.53;;;15.10;99.90;;;15.84;100.00;97901.06;5025639;28;20442;-88
2021/08/03 03:03:46;;;;;;;17.20;6.00;;;15.00;99.90;;;15.86;100.00;97894.50;5029799;28;20820;-88
2021/08/03 03:06:20;;;;;;;9.20;6.63;;;15.10;99.90;;;15.86;100.00;97904.28;5027711;28;20953;-87
2021/08/03 03:08:49;;;;;;;11.23;6.63;;;15.20;99.90;;;15.84;100.00;97893.13;5029094;28;20451;-88
2021/08/03 03:11:20;;;;;;;9.67;6.40;;;15.20;99.90;;;15.83;100.00;97881.78;5030451;28;20524;-88
2021/08/03 03:13:53;;;;;;;14.83;7.13;;;15.10;99.90;;;15.82;100.00;97876.75;5024756;28;20486;-88
2021/08/03 03:16:25;;;;;;;8.67;6.20;;;15.10;99.90;;;15.83;100.00;97883.59;5032461;28;20481;-87
2021/08/03 03:18:57;;;;;;;11.70;6.50;;;15.10;99.90;;;15.83;100.00;97889.69;5034257;28;20492;-87
2021/08/03 03:21:29;;;;;;;12.10;6.73;;;15.10;99.90;;;15.79;100.00;97883.25;5034871;28;20457;-87
2021/08/03 03:24:00;;;;;;;11.60;7.27;;;15.20;99.90;;;15.76;100.00;97885.56;5037988;28;20461;-87
2021/08/03 03:26:36;;;;;;;11.10;7.30;;;15.20;99.90;;;15.78;100.00;97891.41;5026257;28;20947;-88
2021/08/03 03:29:07;;;;;;;12.47;6.93;;;15.20;99.90;;;15.69;100.00;97887.47;5027403;28;20477;-87
2021/08/03 03:31:39;;;;;;;13.90;7.67;;;15.10;99.90;;;15.68;100.00;97891.13;5034591;28;20434;-88
2021/08/03 03:34:10;;;;;;;9.30;6.60;;;15.10;99.90;;;15.68;100.00;97896.41;5041750;28;20588;-87
2021/08/03 03:36:39;;;;;;;13.20;7.43;;;15.00;99.90;;;15.71;100.00;97895.97;5029579;28;20500;-87
2021/08/03 03:39:11;;;;;;;11.20;7.17;;;15.00;99.90;;;15.72;100.00;97894.94;5026928;28;20467;-89
2021/08/03 03:41:44;;;;;;;8.73;5.80;;;15.00;99.90;;;15.74;100.00;97903.41;5016027;28;20599;-89
2021/08/03 03:44:13;;;;;;;11.77;7.30;;;15.10;99.90;;;15.71;100.00;97893.31;5026804;28;20478;-88
2021/08/03 03:46:49;;;;;;;13.03;8.20;;;15.00;99.90;;;15.74;100.00;97895.50;5024649;28;20465;-88
2021/08/03 03:49:24;;;;;;;12.30;6.13;;;14.90;99.90;;;15.72;100.00;97890.47;5026605;28;20473;-88
2021/08/03 03:51:53;;;;;;;9.90;6.33;;;15.00;99.90;;;15.68;100.00;97891.13;5030379;28;20473;-89
2021/08/03 03:54:29;;;;;;;15.53;6.10;;;15.10;99.90;;;15.60;100.00;97885.16;5027048;28;20489;-91
2021/08/03 03:57:04;;;;;;;10.40;5.97;;;15.00;99.90;;;15.63;100.00;97891.78;5030759;28;20469;-90
2021/08/03 03:59:36;;;;;;;12.37;5.60;;;14.90;99.90;;;15.64;100.00;97895.25;5026393;28;20484;-86
2021/08/03 04:02:09;;;;;;;11.70;5.83;;;14.90;99.90;;;15.65;100.00;97897.66;5021265;28;21121;-86
2021/08/03 04:04:40;;;;;;;8.50;5.80;;;14.90;99.90;;;15.66;100.00;97887.91;5033745;28;20478;-88
2021/08/03 04:07:09;;;;;;;9.90;6.40;;;14.90;99.90;;;15.69;100.00;97888.25;5024672;28;20515;-89
2021/08/03 04:09:38;;;;;;;10.73;6.03;;;14.80;99.90;;;15.72;100.00;97887.03;5034142;28;20453;-89
2021/08/03 04:12:08;;;;;;;9.80;6.30;;;14.90;99.90;;;15.75;100.00;97894.50;5030999;28;20455;-88
2021/08/03 04:14:41;;;;;;;9.60;5.97;;;14.90;99.90;;;15.75;100.00;97890.03;5029955;28;20485;-88
2021/08/03 04:17:11;;;;;;;10.63;7.00;;;14.90;99.90;;;15.78;100.00;97894.03;5029854;28;20445;-89
2021/08/03 04:19:40;;;;;;;9.37;6.00;;;14.90;99.90;;;15.79;100.00;97893.03;5031128;28;20863;-88
2021/08/03 04:22:08;;;;;;;20.73;13.17;;;14.90;99.90;;;15.80;100.00;97894.59;5027007;28;20458;-84
2021/08/03 04:24:37;;;;;;;10.27;6.90;;;14.90;99.90;;;15.82;100.00;97890.75;5023321;28;20461;-88
2021/08/03 04:27:05;;;;;;;11.23;7.27;;;14.90;99.90;;;15.82;100.00;97893.38;5032608;28;21080;-87
2021/08/03 04:29:34;;;;;;;10.43;6.57;;;14.90;99.90;;;15.84;100.00;97891.31;5031152;28;20450;-87
2021/08/03 04:32:03;;;;;;;12.20;6.33;;;14.90;99.90;;;15.88;100.00;97889.03;5034684;28;20528;-87
2021/08/03 04:34:33;;;;;;;9.40;5.67;;;15.00;99.90;;;15.88;100.00;97887.19;5032979;28;20493;-91
2021/08/03 04:37:02;;;;;;;10.50;6.20;;;15.00;99.90;;;15.89;100.00;97894.09;5031722;28;20445;-87
2021/08/03 04:39:31;;;;;;;9.73;6.40;;;15.00;99.90;;;15.91;100.00;97886.75;5033036;28;20865;-89
2021/08/03 04:41:59;;;;;;;7.40;5.43;;;15.00;99.90;;;15.82;100.00;97882.84;5037642;28;20449;-91
2021/08/03 04:44:28;;;;;;;9.70;5.83;;;15.00;99.90;;;15.77;100.00;97887.16;5032950;28;20462;-91
2021/08/03 04:46:56;;;;;;;12.40;6.10;;;14.90;99.90;;;15.74;100.00;97885.78;5034825;28;20442;-92
2021/08/03 04:49:25;;;;;;;9.70;6.53;;;14.80;99.90;;;15.75;100.00;97891.84;5039759;28;20446;-91
2021/08/03 04:51:56;;;;;;;11.30;6.73;;;14.80;99.90;;;15.75;100.00;97883.94;5033137;28;20499;-91
2021/08/03 04:54:25;;;;;;;12.93;6.77;;;14.80;99.90;;;15.77;100.00;97887.97;5032286;28;20867;-91
2021/08/03 04:56:53;;;;;;;10.03;6.70;;;14.80;99.90;;;15.78;100.00;97886.13;5035022;28;20555;-92
2021/08/03 04:59:22;;;;;;;11.57;7.00;;;14.80;99.90;;;15.75;100.00;97883.94;5035018;28;20470;-90
2021/08/03 05:01:51;;;;;;;15.70;7.20;;;14.90;99.90;;;15.73;100.00;97883.34;5038896;28;20442;-91
2021/08/03 05:04:19;;;;;;;8.43;6.63;;;14.80;99.90;;;15.72;100.00;97887.03;5034355;28;20501;-91
2021/08/03 05:06:48;;;;;;;14.67;6.70;;;14.90;99.90;;;15.74;100.00;97879.69;5044039;28;20478;-91
2021/08/03 05:09:18;;;;;;;9.83;6.27;;;14.90;99.90;;;15.72;100.00;97887.03;5042995;28;20504;-91
2021/08/03 05:11:47;;;;;;;8.70;5.83;;;15.00;99.90;;;15.66;100.00;97883.44;5033106;28;20523;-91
2021/08/03 05:14:15;;;;;;;10.33;6.73;;;15.00;99.90;;;15.66;100.00;97882.63;5045096;28;20465;-91
2021/08/03 05:16:44;;;;;;;12.27;7.13;;;15.00;99.90;;;15.62;100.00;97877.00;5049564;28;20501;-92
2021/08/03 05:19:13;;;;;;;10.93;6.90;;;14.80;99.90;;;15.61;100.00;97880.69;5031021;28;20596;-91
2021/08/03 05:21:41;;;;;;;9.80;6.23;;;14.60;99.90;;;15.65;100.00;97881.84;5034352;28;20446;-91
2021/08/03 05:24:10;;;;;;;10.63;6.63;;;14.70;99.90;;;15.70;100.00;97883.78;5032984;28;20497;-91
2021/08/03 05:26:42;;;;;;;8.03;6.30;;;14.80;99.90;;;15.66;100.00;97877.34;5056984;28;20439;-91
2021/08/03 05:29:10;;;;;;;14.87;7.27;;;14.70;99.90;;;15.64;100.00;97874.97;5035885;28;20457;-91
2021/08/03 05:31:39;;;;;;;11.10;7.13;;;14.70;99.90;;;15.67;100.00;97873.69;5042753;28;20516;-91
2021/08/03 05:34:08;;;;;;;10.37;7.00;;;14.70;99.90;;;15.68;100.00;97868.22;5040971;28;20483;-91
2021/08/03 05:36:38;;;;;;;14.20;6.77;;;14.70;99.90;;;15.67;100.00;97874.50;5041987;28;21023;-91
2021/08/03 05:39:06;;;;;;;14.17;7.97;;;14.70;99.90;;;15.68;100.00;97870.84;5044877;28;20442;-92
2021/08/03 05:41:36;;;;;;;12.07;7.90;;;14.70;99.90;;;15.69;100.00;97876.94;5052116;28;20520;-91
2021/08/03 05:44:06;;;;;;;11.60;6.87;;;14.70;99.90;;;15.68;100.00;97875.31;5049175;28;20491;-91
2021/08/03 05:46:35;;;;;;;10.57;6.70;;;14.70;99.90;;;15.73;100.00;97878.06;5042618;28;20446;-91
2021/08/03 05:49:03;;;;;;;10.47;7.50;;;14.80;99.90;;;15.82;100.00;97885.47;5047215;28;20442;-91
2021/08/03 05:51:32;;;;;;;12.57;7.03;;;14.90;99.90;;;15.89;100.00;97877.47;5033739;28;20493;-91
2021/08/03 05:54:01;;;;;;;10.80;6.80;;;15.00;99.90;;;15.94;100.00;97880.22;5034928;28;20462;-91
2021/08/03 05:56:30;;;;;;;10.37;6.50;;;15.00;99.90;;;15.97;100.00;97877.13;5036715;28;20532;-91
2021/08/03 05:58:59;;;;;;;8.20;6.17;;;15.10;99.90;;;15.97;100.00;97880.56;5035525;28;20982;-91
2021/08/03 06:01:30;;;;;;;11.40;6.90;;;15.10;99.90;;;15.98;100.00;97881.38;5038314;28;20446;-91
2021/08/03 06:03:59;;;;;;;10.30;6.90;;;15.00;99.90;;;15.97;100.00;97885.84;5031461;28;20786;-91
2021/08/03 06:06:35;;;;;;;8.83;5.60;;;15.00;99.90;;;15.99;100.00;97888.25;5035882;28;20458;-91
2021/08/03 06:09:04;;;;;;;8.33;5.47;;;15.00;99.90;;;16.04;100.00;97891.81;5029228;28;20482;-91
2021/08/03 06:11:33;;;;;;;10.33;6.30;;;15.20;99.90;;;16.11;100.00;97889.09;5034695;28;20500;-92
2021/08/03 06:14:04;;;;;;;12.40;5.60;;;15.30;99.90;;;16.16;100.00;97883.13;5038311;28;20504;-91
2021/08/03 06:16:36;;;;;;;7.67;5.63;;;15.40;99.90;;;16.14;100.00;97888.63;5036629;28;20501;-91
2021/08/03 06:19:13;;;;;;;5.77;4.50;;;15.40;99.90;;;16.13;100.00;97889.69;5038645;28;20815;-92
2021/08/03 06:21:45;;;;;;;5.37;3.90;;;15.40;99.90;;;16.14;100.00;97891.28;5029196;28;20492;-91
2021/08/03 06:24:17;;;;;;;8.80;4.13;;;15.40;99.90;;;16.17;100.00;97885.56;5040631;28;20547;-91
2021/08/03 06:26:46;;;;;;;5.33;3.90;;;15.40;99.90;;;16.16;100.00;97899.78;5037912;28;20458;-91
2021/08/03 06:29:16;;;;;;;4.80;3.43;;;15.30;99.90;;;16.20;100.00;97893.03;5031825;28;20583;-91
2021/08/03 06:31:46;;;;;;;7.60;3.83;;;15.40;99.90;;;16.20;100.00;97898.31;5043159;28;20511;-91
2021/08/03 06:34:18;;;;;;;5.37;3.17;;;15.50;99.90;;;16.19;100.00;97903.78;5032377;28;20832;-90
2021/08/03 06:36:46;;;;;;;3.83;2.13;;;15.50;99.90;;;16.17;100.00;97888.22;5023279;28;20493;-90
2021/08/03 06:39:15;;;;;;;8.40;1.90;;;15.50;99.90;;;16.19;100.00;97894.03;5029397;28;20454;-91
2021/08/03 06:41:47;;;;;;;2.57;1.80;;;15.50;99.90;;;16.16;100.00;97889.22;5027109;28;20458;-91
2021/08/03 06:44:23;;;;;;;3.03;1.80;;;15.50;99.90;;;16.06;100.00;97879.22;5043093;28;20438;-91
2021/08/03 06:46:57;;;;;;;2.17;1.50;;;15.50;99.90;;;16.06;100.00;97883.69;5031935;28;20457;-91
2021/08/03 06:49:31;;;;;;;1.70;1.50;;;15.40;99.90;;;16.05;100.00;97877.63;5031067;28;20457;-90
2021/08/03 06:52:01;;;;;;;2.23;1.57;;;15.40;99.90;;;16.01;100.00;97886.19;5023985;28;20536;-90
2021/08/03 06:54:32;;;;;;;2.30;1.33;;;15.30;99.90;;;15.99;100.00;97883.81;5032963;28;20511;-91
2021/08/03 06:57:09;;;;;;;2.13;1.27;;;15.30;99.90;;;15.95;100.00;97882.63;5032795;28;20489;-90
2021/08/03 06:59:46;;;;;;;3.17;1.60;;;15.20;99.90;;;15.97;100.00;97882.41;5033276;28;20522;-90
2021/08/03 07:02:29;;;;;;;2.00;1.40;;;15.10;99.90;;;15.98;100.00;97886.66;5028949;28;20461;-90
2021/08/03 07:05:00;;;;;;;2.03;1.50;;;15.10;99.90;;;16.03;100.00;97882.31;5030370;28;20516;-91
2021/08/03 07:07:29;;;;;;;1.83;1.30;;;15.20;99.90;;;15.93;100.00;97884.69;5031873;28;20454;-90
2021/08/03 07:10:01;;;;;;;1.60;1.30;;;15.00;99.90;;;15.99;100.00;97877.72;5029199;28;20964;-90
2021/08/03 07:12:31;;;;;;;2.00;1.33;;;15.10;99.90;;;16.02;100.00;97882.53;5034511;28;20957;-90
2021/08/03 07:15:00;;;;;;;3.17;1.20;;;15.10;99.90;;;16.03;100.00;97873.59;5033666;28;20507;-90
2021/08/03 07:17:32;;;;;;;1.97;1.30;;;15.10;99.90;;;16.02;100.00;97877.25;5036214;28;20489;-91
2021/08/03 07:20:03;;;;;;;3.90;1.33;;;15.10;99.90;;;16.07;100.00;97874.72;5035521;28;20947;-91
2021/08/03 07:22:34;;;;;;;2.37;1.57;;;15.20;99.90;;;16.11;100.00;97873.25;5035926;28;20466;-90
2021/08/03 07:25:04;;;;;;;2.13;1.30;;;15.20;99.90;;;16.11;100.00;97870.63;5038533;28;20450;-90
2021/08/03 07:27:33;;;;;;;3.43;1.37;;;15.20;99.90;;;16.02;100.00;97872.00;5039145;28;20520;-91
2021/08/03 07:30:02;;;;;;;1.40;1.20;;;15.30;99.90;;;16.05;100.00;97867.06;5041593;28;20457;-90
2021/08/03 07:32:35;;;;;;;1.67;1.13;;;15.30;99.90;;;16.10;100.00;97861.91;5050052;28;20807;-90
2021/08/03 07:35:06;;;;;;;1.80;1.10;;;15.40;99.90;;;16.14;100.00;97864.88;5044474;28;20489;-91
2021/08/03 07:37:37;;;;;;;1.53;1.40;;;15.30;99.90;;;16.17;100.00;97850.47;5047703;28;20504;-90
2021/08/03 07:40:08;;;;;;;1.40;1.30;;;15.30;99.90;;;16.19;100.00;97849.19;5039397;28;20445;-90
2021/08/03 07:42:43;;;;;;;1.30;1.20;;;15.30;99.90;;;16.18;100.00;97844.94;5050015;28;20514;-90
2021/08/03 07:45:14;;;;;;;3.20;1.40;;;15.30;99.90;;;16.16;100.00;97848.84;5030337;28;20460;-88
2021/08/03 07:47:44;;;;;;;1.83;1.47;;;15.30;99.90;;;16.15;100.00;97858.59;5036706;28;20477;-88
2021/08/03 07:50:14;;;;;;;1.90;1.50;;;15.30;99.90;;;16.19;100.00;97836.00;5030763;28;20493;-88
2021/08/03 07:52:43;;;;;;;2.30;1.57;;;15.30;99.90;;;16.22;100.00;97835.53;5030318;28;20480;-88
2021/08/03 07:55:12;;;;;;;1.77;1.40;;;15.30;99.90;;;16.26;100.00;97825.34;5024736;28;20871;-87
2021/08/03 07:57:41;;;;;;;3.50;1.50;;;15.30;99.90;;;16.24;100.00;97819.50;5027747;28;21002;-88
2021/08/03 08:00:11;;;;;;;4.40;1.50;;;15.40;99.90;;;16.23;100.00;97816.03;5036998;28;20486;-88
2021/08/03 08:02:43;;;;;;;3.40;1.50;;;15.40;99.90;;;16.23;100.00;97826.59;5034109;28;20461;-88
2021/08/03 08:05:12;;;;;;;1.63;1.37;;;15.30;99.90;;;16.27;100.00;97842.78;5038602;28;20458;-88
2021/08/03 08:07:41;;;;;;;2.70;1.60;;;15.30;99.90;;;16.31;100.00;97849.22;5040240;28;20513;-88
2021/08/03 08:10:11;;;;;;;2.57;1.97;;;15.40;99.90;;;16.34;100.00;97861.97;5041729;28;20450;-88
2021/08/03 08:12:39;;;;;;;1.90;1.70;;;15.40;99.90;;;16.30;100.00;97866.88;5042570;28;20457;-88
2021/08/03 08:15:10;;;;;;;2.27;1.43;;;15.40;99.90;;;16.34;100.00;97868.03;5036081;28;20993;-88
2021/08/03 08:17:39;;;;;;;2.03;1.60;;;15.40;99.90;;;16.38;100.00;97873.66;5041611;28;20497;-87
2021/08/03 08:20:13;;;;;;;5.03;1.67;;;15.50;99.90;;;16.42;100.00;97875.59;5039839;28;20457;-88
2021/08/03 08:22:42;;;;;;;3.50;1.70;;;15.60;99.90;;;16.44;100.00;97881.47;5048946;28;20456;-87
2021/08/03 08:25:13;;;;;;;1.93;1.77;;;15.60;99.90;;;16.49;100.00;97884.22;5040722;28;20532;-88
2021/08/03 08:27:43;;;;;;;1.50;1.40;;;15.70;99.90;;;16.51;100.00;97882.16;5049287;28;20794;-88
2021/08/03 08:30:14;;;;;;;3.60;1.90;;;15.60;99.90;;;16.53;100.00;97879.28;5043951;28;20449;-88
2021/08/03 08:32:43;;;;;;;3.77;1.60;;;15.70;99.90;;;16.55;100.00;97886.00;5042479;28;20496;-88
2021/08/03 08:35:35;;;;;;;2.80;1.70;;;15.60;99.90;;;16.54;100.00;97887.00;5039858;28;20458;-88
2021/08/03 08:38:05;;;;;;;1.83;1.63;;;15.70;99.90;;;16.55;100.00;97886.00;5043220;28;20572;-88
2021/08/03 08:40:34;;;;;;;2.33;1.37;;;15.80;99.90;;;16.57;100.00;97885.75;5033992;28;20512;-88
2021/08/03 08:43:03;;;;;;;1.63;1.53;;;15.90;99.90;;;16.62;100.00;97885.06;5034312;28;20524;-88
2021/08/03 08:45:32;;;;;;;2.80;1.80;;;15.80;99.90;;;16.63;100.00;97884.03;5028256;28;20541;-88
2021/08/03 08:48:02;;;;;;;1.97;1.70;;;15.90;99.90;;;16.64;100.00;97878.53;5036795;28;20474;-88
2021/08/03 08:50:31;;;;;;;2.17;1.80;;;15.90;99.90;;;16.68;100.00;97881.50;5053564;28;20984;-88
2021/08/03 08:53:01;;;;;;;1.83;1.50;;;15.90;99.90;;;16.71;100.00;97883.69;5033151;28;20450;-88
2021/08/03 08:55:30;;;;;;;2.53;1.53;;;15.90;99.90;;;16.70;100.00;97874.97;5038381;28;20452;-88
2021/08/03 08:57:59;;;;;;;5.97;1.90;;;16.00;99.90;;;16.71;100.00;97875.75;5035338;28;20550;-88
2021/08/03 09:00:29;;;;;;;4.33;2.07;;;16.00;99.90;;;16.73;100.00;97879.00;5029569;28;20549;-89
2021/08/03 09:02:58;;;;;;;12.83;2.27;;;16.00;99.90;;;16.77;100.00;97869.56;5040751;28;20445;-87
2021/08/03 09:05:33;;;;;;;6.53;1.67;;;16.10;99.90;;;16.81;100.00;97870.72;5037208;28;20520;-89
2021/08/03 09:08:05;;;;;;;2.10;1.90;;;16.20;99.90;;;16.86;100.00;97858.44;5041197;28;20455;-89
2021/08/03 09:10:38;;;;;;;7.77;2.10;;;16.20;99.90;;;16.94;100.00;97838.75;5037605;28;20493;-89
2021/08/03 09:13:13;;;;;;;2.93;1.83;;;16.30;99.90;;;17.00;100.00;97843.94;5039915;28;20461;-87
2021/08/03 09:15:45;;;;;;;1.47;1.37;;;16.30;99.90;;;17.10;100.00;97838.88;5039834;28;20595;-90
2021/08/03 09:18:18;;;;;;;1.80;1.47;;;16.40;99.90;;;17.18;100.00;97850.88;5041831;28;20505;-89
2021/08/03 09:20:48;;;;;;;2.20;1.80;;;16.50;99.90;;;17.24;100.00;97844.69;5043629;28;20460;-89
2021/08/03 09:23:18;;;;;;;1.97;1.67;;;16.60;99.90;;;17.25;100.00;97853.44;5041810;28;20449;-89
2021/08/03 09:25:58;;;;;;;4.40;1.43;;;16.50;99.90;;;17.27;100.00;97860.06;5030466;28;20502;-88
2021/08/03 09:28:27;;;;;;;1.50;1.40;;;16.60;99.90;;;17.05;100.00;97865.16;5039656;28;20449;-89
2021/08/03 09:30:56;;;;;;;2.57;1.60;;;16.20;99.90;;;17.03;100.00;97866.44;5039856;28;20476;-88
2021/08/03 09:33:27;;;;;;;2.20;1.60;;;16.10;99.90;;;17.08;100.00;97869.19;5042475;28;20443;-89
2021/08/03 09:35:59;;;;;;;2.40;1.97;;;16.20;99.90;;;17.16;100.00;97874.13;5048394;28;20445;-89
2021/08/03 09:38:28;;;;;;;3.80;1.70;;;16.40;99.90;;;17.07;100.00;97870.22;5039895;28;20852;-89
2021/08/03 09:41:09;;;;;;;2.13;1.80;;;16.20;99.90;;;17.02;100.00;97878.03;5031531;28;20463;-88
2021/08/03 09:43:39;;;;;;;2.23;2.03;;;16.10;99.90;;;17.04;100.00;97870.69;5043603;28;20546;-88
2021/08/03 09:46:08;;;;;;;2.60;2.40;;;16.20;99.90;;;17.13;100.00;97874.59;5042576;28;20458;-89
2021/08/03 09:48:46;;;;;;;2.10;1.90;;;16.40;99.90;;;17.18;100.00;97868.59;5044742;28;20540;-89
2021/08/03 09:51:15;;;;;;;4.70;1.80;;;16.40;99.90;;;17.28;100.00;97872.25;5043083;28;20484;-88
2021/08/03 09:53:52;;;;;;;2.10;1.50;;;16.50;99.90;;;17.18;100.00;97873.91;5040418;28;20968;-89
2021/08/03 09:56:36;;;;;;;2.53;1.20;;;16.40;99.90;;;17.20;100.00;97874.44;5040359;28;20496;-89
2021/08/03 09:59:07;;;;;;;1.50;1.33;;;16.40;99.90;;;17.24;100.00;97867.66;5045002;28;20504;-89
2021/08/03 10:01:38;;;;;;;1.80;1.17;;;16.50;99.90;;;17.08;100.00;97861.25;5036651;28;20445;-89
2021/08/03 10:04:11;;;;;;;1.43;1.10;;;16.20;99.90;;;17.16;100.00;97852.97;5043223;28;20458;-89
2021/08/03 10:06:41;;;;;;;8.00;1.53;;;16.30;99.90;;;17.13;100.00;97845.50;5032615;28;20442;-89
2021/08/03 10:09:12;;;;;;;2.83;1.30;;;16.20;99.90;;;17.20;100.00;97840.91;5031463;28;20474;-88
2021/08/03 10:11:41;;;;;;;1.83;1.33;;;16.40;99.90;;;17.28;100.00;97840.53;5033429;28;20966;-89
2021/08/03 10:14:26;;;;;;;2.13;1.30;;;16.50;99.90;;;17.29;100.00;97830.75;5030267;28;20462;-89
2021/08/03 10:16:56;;;;;;;1.23;1.10;;;16.60;99.90;;;17.31;100.00;97831.34;5034905;28;20464;-88
2021/08/03 10:19:28;;;;;;;1.70;1.27;;;16.50;99.90;;;17.39;100.00;97820.41;5028436;28;20494;-89
2021/08/03 10:22:16;;;;;;;1.87;1.30;;;16.60;99.90;;;17.38;100.00;97818.78;5014088;28;20538;-89
2021/08/03 10:24:57;;;;;;;4.70;1.33;;;16.50;99.90;;;17.44;100.00;97813.34;5021397;28;20449;-89
2021/08/03 10:27:42;;;;;;;1.40;1.10;;;16.60;99.90;;;17.48;100.00;97809.19;5030482;28;21020;-88
2021/08/03 10:30:35;;;;;;;1.50;1.37;;;16.60;99.90;;;17.50;100.00;97808.94;5032524;28;20481;-89